sensor_id;sensor_type;location;lat;lon;timestamp;temperature;humidity
13796;SHT30;40911;51.552;9.874;2023-03-01T00:01:31;-2.93;85.27
13796;SHT30;40911;51.552;9.874;2023-03-01T00:03:54;-2.92;85.05
13796;SHT30;40911;51.552;9.874;2023-03-01T00:06:16;-2.94;84.88
13796;SHT30;40911;51.552;9.874;2023-03-01T00:08:38;-3.21;86.73
13796;SHT30;40911;51.552;9.874;2023-03-01T00:11:01;-3.27;86.35
13796;SHT30;40911;51.552;9.874;2023-03-01T00:13:24;-3.04;85.77
13796;SHT30;40911;51.552;9.874;2023-03-01T00:15:46;-3.22;86.27
13796;SHT30;40911;51.552;9.874;2023-03-01T00:18:08;-3.05;84.95
13796;SHT30;40911;51.552;9.874;2023-03-01T00:20:29;-3.00;84.45
13796;SHT30;40911;51.552;9.874;2023-03-01T00:22:51;-3.03;85.12
13796;SHT30;40911;51.552;9.874;2023-03-01T00:25:12;-3.01;85.18
13796;SHT30;40911;51.552;9.874;2023-03-01T00:27:34;-3.04;84.89
13796;SHT30;40911;51.552;9.874;2023-03-01T00:29:57;-3.27;86.03
13796;SHT30;40911;51.552;9.874;2023-03-01T00:32:18;-3.24;85.52
13796;SHT30;40911;51.552;9.874;2023-03-01T00:34:40;-3.15;86.16
13796;SHT30;40911;51.552;9.874;2023-03-01T00:37:01;-3.11;85.67
13796;SHT30;40911;51.552;9.874;2023-03-01T00:39:25;-3.31;86.29
13796;SHT30;40911;51.552;9.874;2023-03-01T00:41:47;-3.32;86.20
13796;SHT30;40911;51.552;9.874;2023-03-01T00:44:08;-3.30;86.16
13796;SHT30;40911;51.552;9.874;2023-03-01T00:46:32;-3.25;85.96
13796;SHT30;40911;51.552;9.874;2023-03-01T00:48:54;-3.34;85.73
13796;SHT30;40911;51.552;9.874;2023-03-01T00:51:17;-3.38;85.75
13796;SHT30;40911;51.552;9.874;2023-03-01T00:53:40;-3.34;85.78
13796;SHT30;40911;51.552;9.874;2023-03-01T00:56:02;-3.41;85.62
13796;SHT30;40911;51.552;9.874;2023-03-01T00:58:24;-3.39;85.58
13796;SHT30;40911;51.552;9.874;2023-03-01T01:00:45;-3.49;86.01
13796;SHT30;40911;51.552;9.874;2023-03-01T01:03:08;-3.42;86.12
13796;SHT30;40911;51.552;9.874;2023-03-01T01:05:30;-3.35;85.94
13796;SHT30;40911;51.552;9.874;2023-03-01T01:07:51;-3.35;86.05
13796;SHT30;40911;51.552;9.874;2023-03-01T01:10:13;-3.34;86.05
13796;SHT30;40911;51.552;9.874;2023-03-01T01:12:37;-3.39;86.46
13796;SHT30;40911;51.552;9.874;2023-03-01T01:14:58;-3.28;86.59
13796;SHT30;40911;51.552;9.874;2023-03-01T01:17:20;-3.20;86.42
13796;SHT30;40911;51.552;9.874;2023-03-01T01:19:43;-3.32;87.07
13796;SHT30;40911;51.552;9.874;2023-03-01T01:22:04;-3.36;86.84
13796;SHT30;40911;51.552;9.874;2023-03-01T01:24:26;-3.53;87.88
13796;SHT30;40911;51.552;9.874;2023-03-01T01:26:48;-3.43;87.12
13796;SHT30;40911;51.552;9.874;2023-03-01T01:29:09;-3.48;86.89
13796;SHT30;40911;51.552;9.874;2023-03-01T01:31:32;-3.55;87.42
13796;SHT30;40911;51.552;9.874;2023-03-01T01:33:55;-3.59;87.56
13796;SHT30;40911;51.552;9.874;2023-03-01T01:36:18;-3.58;87.93
13796;SHT30;40911;51.552;9.874;2023-03-01T01:38:40;-3.51;87.97
13796;SHT30;40911;51.552;9.874;2023-03-01T01:41:03;-3.55;88.14
13796;SHT30;40911;51.552;9.874;2023-03-01T01:43:27;-3.59;88.69
13796;SHT30;40911;51.552;9.874;2023-03-01T01:45:49;-3.53;87.76
13796;SHT30;40911;51.552;9.874;2023-03-01T01:48:14;-3.46;87.81
13796;SHT30;40911;51.552;9.874;2023-03-01T01:50:39;-3.55;88.17
13796;SHT30;40911;51.552;9.874;2023-03-01T01:53:05;-3.48;87.73
13796;SHT30;40911;51.552;9.874;2023-03-01T01:55:28;-3.56;87.96
13796;SHT30;40911;51.552;9.874;2023-03-01T01:57:53;-3.58;88.16
13796;SHT30;40911;51.552;9.874;2023-03-01T02:00:18;-3.64;88.34
13796;SHT30;40911;51.552;9.874;2023-03-01T02:02:40;-3.53;88.37
13796;SHT30;40911;51.552;9.874;2023-03-01T02:05:08;-3.52;88.05
13796;SHT30;40911;51.552;9.874;2023-03-01T02:07:32;-3.60;88.34
13796;SHT30;40911;51.552;9.874;2023-03-01T02:09:56;-3.56;88.47
13796;SHT30;40911;51.552;9.874;2023-03-01T02:12:20;-3.69;88.58
13796;SHT30;40911;51.552;9.874;2023-03-01T02:14:43;-3.70;88.55
13796;SHT30;40911;51.552;9.874;2023-03-01T02:17:04;-3.59;88.51
13796;SHT30;40911;51.552;9.874;2023-03-01T02:19:39;-3.73;88.92
13796;SHT30;40911;51.552;9.874;2023-03-01T02:22:11;-3.63;88.74
13796;SHT30;40911;51.552;9.874;2023-03-01T02:24:40;-3.63;88.81
13796;SHT30;40911;51.552;9.874;2023-03-01T02:27:09;-3.82;89.34
13796;SHT30;40911;51.552;9.874;2023-03-01T02:29:32;-3.69;88.70
13796;SHT30;40911;51.552;9.874;2023-03-01T02:31:55;-3.69;88.50
13796;SHT30;40911;51.552;9.874;2023-03-01T02:34:18;-3.60;88.16
13796;SHT30;40911;51.552;9.874;2023-03-01T02:36:43;-3.72;87.87
13796;SHT30;40911;51.552;9.874;2023-03-01T02:39:08;-3.72;88.30
13796;SHT30;40911;51.552;9.874;2023-03-01T02:41:36;-3.73;88.33
13796;SHT30;40911;51.552;9.874;2023-03-01T02:43:58;-3.75;88.27
13796;SHT30;40911;51.552;9.874;2023-03-01T02:46:23;-3.83;88.70
13796;SHT30;40911;51.552;9.874;2023-03-01T02:48:48;-3.80;87.99
13796;SHT30;40911;51.552;9.874;2023-03-01T02:51:18;-3.82;88.39
13796;SHT30;40911;51.552;9.874;2023-03-01T02:53:50;-3.87;88.17
13796;SHT30;40911;51.552;9.874;2023-03-01T02:56:15;-3.87;87.71
13796;SHT30;40911;51.552;9.874;2023-03-01T02:58:37;-3.90;88.02
13796;SHT30;40911;51.552;9.874;2023-03-01T03:01:05;-3.93;87.58
13796;SHT30;40911;51.552;9.874;2023-03-01T03:03:30;-3.91;87.86
13796;SHT30;40911;51.552;9.874;2023-03-01T03:05:52;-4.01;88.05
13796;SHT30;40911;51.552;9.874;2023-03-01T03:08:14;-3.96;88.10
13796;SHT30;40911;51.552;9.874;2023-03-01T03:10:43;-4.03;88.36
13796;SHT30;40911;51.552;9.874;2023-03-01T03:13:07;-3.97;87.54
13796;SHT30;40911;51.552;9.874;2023-03-01T03:15:29;-4.06;87.89
13796;SHT30;40911;51.552;9.874;2023-03-01T03:17:51;-4.01;88.42
13796;SHT30;40911;51.552;9.874;2023-03-01T03:20:18;-4.00;88.09
13796;SHT30;40911;51.552;9.874;2023-03-01T03:22:40;-4.14;88.32
13796;SHT30;40911;51.552;9.874;2023-03-01T03:25:01;-4.18;88.13
13796;SHT30;40911;51.552;9.874;2023-03-01T03:27:23;-4.22;88.55
13796;SHT30;40911;51.552;9.874;2023-03-01T03:29:44;-4.17;88.42
13796;SHT30;40911;51.552;9.874;2023-03-01T03:32:06;-4.15;88.33
13796;SHT30;40911;51.552;9.874;2023-03-01T03:34:27;-4.20;88.06
13796;SHT30;40911;51.552;9.874;2023-03-01T03:36:54;-4.32;88.98
13796;SHT30;40911;51.552;9.874;2023-03-01T03:39:19;-4.34;88.40
13796;SHT30;40911;51.552;9.874;2023-03-01T03:41:41;-4.27;88.16
13796;SHT30;40911;51.552;9.874;2023-03-01T03:44:03;-4.29;88.34
13796;SHT30;40911;51.552;9.874;2023-03-01T03:46:24;-4.50;89.25
13796;SHT30;40911;51.552;9.874;2023-03-01T03:48:46;-4.34;88.29
13796;SHT30;40911;51.552;9.874;2023-03-01T03:51:10;-4.32;88.05
13796;SHT30;40911;51.552;9.874;2023-03-01T03:53:33;-4.45;88.40
13796;SHT30;40911;51.552;9.874;2023-03-01T03:55:55;-4.45;88.42
13796;SHT30;40911;51.552;9.874;2023-03-01T03:58:18;-4.49;88.18
13796;SHT30;40911;51.552;9.874;2023-03-01T04:00:42;-4.66;89.10
13796;SHT30;40911;51.552;9.874;2023-03-01T04:03:04;-4.58;89.11
13796;SHT30;40911;51.552;9.874;2023-03-01T04:05:26;-4.56;89.28
13796;SHT30;40911;51.552;9.874;2023-03-01T04:07:48;-4.50;89.43
13796;SHT30;40911;51.552;9.874;2023-03-01T04:10:22;-4.50;88.79
13796;SHT30;40911;51.552;9.874;2023-03-01T04:12:44;-4.59;89.01
13796;SHT30;40911;51.552;9.874;2023-03-01T04:15:06;-4.58;89.20
13796;SHT30;40911;51.552;9.874;2023-03-01T04:17:33;-4.55;88.39
13796;SHT30;40911;51.552;9.874;2023-03-01T04:19:55;-4.53;88.13
13796;SHT30;40911;51.552;9.874;2023-03-01T04:22:17;-4.55;89.14
13796;SHT30;40911;51.552;9.874;2023-03-01T04:24:38;-4.63;89.49
13796;SHT30;40911;51.552;9.874;2023-03-01T04:27:01;-4.58;89.36
13796;SHT30;40911;51.552;9.874;2023-03-01T04:29:23;-4.60;89.28
13796;SHT30;40911;51.552;9.874;2023-03-01T04:31:44;-4.79;90.43
13796;SHT30;40911;51.552;9.874;2023-03-01T04:34:06;-4.67;89.45
13796;SHT30;40911;51.552;9.874;2023-03-01T04:36:29;-4.75;90.20
13796;SHT30;40911;51.552;9.874;2023-03-01T04:38:50;-4.73;89.62
13796;SHT30;40911;51.552;9.874;2023-03-01T04:41:13;-4.70;89.46
13796;SHT30;40911;51.552;9.874;2023-03-01T04:43:36;-4.72;89.96
13796;SHT30;40911;51.552;9.874;2023-03-01T04:46:00;-4.80;90.73
13796;SHT30;40911;51.552;9.874;2023-03-01T04:48:22;-4.63;90.05
13796;SHT30;40911;51.552;9.874;2023-03-01T04:50:44;-4.52;90.18
13796;SHT30;40911;51.552;9.874;2023-03-01T04:53:05;-4.58;90.49
13796;SHT30;40911;51.552;9.874;2023-03-01T04:55:28;-4.49;90.45
13796;SHT30;40911;51.552;9.874;2023-03-01T04:57:49;-4.46;90.64
13796;SHT30;40911;51.552;9.874;2023-03-01T05:00:14;-4.42;90.58
13796;SHT30;40911;51.552;9.874;2023-03-01T05:02:41;-4.35;90.77
13796;SHT30;40911;51.552;9.874;2023-03-01T05:05:03;-4.38;90.31
13796;SHT30;40911;51.552;9.874;2023-03-01T05:07:26;-4.55;90.78
13796;SHT30;40911;51.552;9.874;2023-03-01T05:09:47;-4.58;90.75
13796;SHT30;40911;51.552;9.874;2023-03-01T05:12:09;-4.62;89.73
13796;SHT30;40911;51.552;9.874;2023-03-01T05:14:31;-4.63;90.38
13796;SHT30;40911;51.552;9.874;2023-03-01T05:16:54;-4.59;89.97
13796;SHT30;40911;51.552;9.874;2023-03-01T05:19:15;-4.53;90.26
13796;SHT30;40911;51.552;9.874;2023-03-01T05:21:43;-4.70;90.58
13796;SHT30;40911;51.552;9.874;2023-03-01T05:24:24;-4.67;90.48
13796;SHT30;40911;51.552;9.874;2023-03-01T05:26:45;-4.66;90.99
13796;SHT30;40911;51.552;9.874;2023-03-01T05:29:08;-4.60;90.87
13796;SHT30;40911;51.552;9.874;2023-03-01T05:31:30;-4.60;90.49
13796;SHT30;40911;51.552;9.874;2023-03-01T05:33:52;-4.60;90.35
13796;SHT30;40911;51.552;9.874;2023-03-01T05:36:14;-4.81;91.22
13796;SHT30;40911;51.552;9.874;2023-03-01T05:38:36;-4.75;90.64
13796;SHT30;40911;51.552;9.874;2023-03-01T05:40:58;-4.70;90.67
13796;SHT30;40911;51.552;9.874;2023-03-01T05:43:19;-4.77;90.21
13796;SHT30;40911;51.552;9.874;2023-03-01T05:45:41;-4.80;90.40
13796;SHT30;40911;51.552;9.874;2023-03-01T05:48:03;-4.79;90.74
13796;SHT30;40911;51.552;9.874;2023-03-01T05:50:29;-4.87;91.43
13796;SHT30;40911;51.552;9.874;2023-03-01T05:52:57;-4.98;91.88
13796;SHT30;40911;51.552;9.874;2023-03-01T05:55:20;-4.94;91.47
13796;SHT30;40911;51.552;9.874;2023-03-01T05:57:42;-4.88;91.15
13796;SHT30;40911;51.552;9.874;2023-03-01T06:00:04;-4.96;90.92
13796;SHT30;40911;51.552;9.874;2023-03-01T06:02:26;-4.98;91.64
13796;SHT30;40911;51.552;9.874;2023-03-01T06:04:49;-4.90;90.63
13796;SHT30;40911;51.552;9.874;2023-03-01T06:07:12;-4.98;91.08
13796;SHT30;40911;51.552;9.874;2023-03-01T06:09:33;-4.90;90.50
13796;SHT30;40911;51.552;9.874;2023-03-01T06:11:55;-5.00;90.95
13796;SHT30;40911;51.552;9.874;2023-03-01T06:14:16;-5.00;90.13
13796;SHT30;40911;51.552;9.874;2023-03-01T06:16:38;-5.11;90.59
13796;SHT30;40911;51.552;9.874;2023-03-01T06:19:00;-5.06;90.19
13796;SHT30;40911;51.552;9.874;2023-03-01T06:21:22;-5.03;90.40
13796;SHT30;40911;51.552;9.874;2023-03-01T06:23:45;-4.97;90.61
13796;SHT30;40911;51.552;9.874;2023-03-01T06:26:08;-5.01;90.49
13796;SHT30;40911;51.552;9.874;2023-03-01T06:28:29;-4.97;90.61
13796;SHT30;40911;51.552;9.874;2023-03-01T06:30:51;-4.97;90.60
13796;SHT30;40911;51.552;9.874;2023-03-01T06:33:13;-4.84;90.30
13796;SHT30;40911;51.552;9.874;2023-03-01T06:35:34;-4.87;90.29
13796;SHT30;40911;51.552;9.874;2023-03-01T06:37:56;-4.75;90.45
13796;SHT30;40911;51.552;9.874;2023-03-01T06:40:19;-4.58;90.37
13796;SHT30;40911;51.552;9.874;2023-03-01T06:42:42;-4.48;90.25
13796;SHT30;40911;51.552;9.874;2023-03-01T06:45:05;-4.41;90.16
13796;SHT30;40911;51.552;9.874;2023-03-01T06:47:27;-4.35;90.03
13796;SHT30;40911;51.552;9.874;2023-03-01T06:49:49;-4.24;89.86
13796;SHT30;40911;51.552;9.874;2023-03-01T06:52:11;-4.17;89.81
13796;SHT30;40911;51.552;9.874;2023-03-01T06:54:32;-4.11;90.67
13796;SHT30;40911;51.552;9.874;2023-03-01T06:56:55;-3.87;89.22
13796;SHT30;40911;51.552;9.874;2023-03-01T06:59:17;-3.76;89.53
13796;SHT30;40911;51.552;9.874;2023-03-01T07:01:39;-3.49;88.09
13796;SHT30;40911;51.552;9.874;2023-03-01T07:04:00;-3.52;89.47
13796;SHT30;40911;51.552;9.874;2023-03-01T07:06:22;-3.13;88.26
13796;SHT30;40911;51.552;9.874;2023-03-01T07:08:44;-3.04;88.16
13796;SHT30;40911;51.552;9.874;2023-03-01T07:11:06;-2.92;87.29
13796;SHT30;40911;51.552;9.874;2023-03-01T07:13:29;-2.82;86.94
13796;SHT30;40911;51.552;9.874;2023-03-01T07:15:51;-2.48;86.95
13796;SHT30;40911;51.552;9.874;2023-03-01T07:18:12;-2.44;86.42
13796;SHT30;40911;51.552;9.874;2023-03-01T07:20:34;-2.13;86.43
13796;SHT30;40911;51.552;9.874;2023-03-01T07:22:56;-1.93;85.83
13796;SHT30;40911;51.552;9.874;2023-03-01T07:25:18;-1.79;86.00
13796;SHT30;40911;51.552;9.874;2023-03-01T07:27:40;-1.63;85.80
13796;SHT30;40911;51.552;9.874;2023-03-01T07:30:04;-1.48;85.33
13796;SHT30;40911;51.552;9.874;2023-03-01T07:32:25;-1.47;84.84
13796;SHT30;40911;51.552;9.874;2023-03-01T07:34:47;-1.20;84.81
13796;SHT30;40911;51.552;9.874;2023-03-01T07:37:09;-1.04;84.30
13796;SHT30;40911;51.552;9.874;2023-03-01T07:39:30;-0.83;83.96
13796;SHT30;40911;51.552;9.874;2023-03-01T07:41:52;-0.74;83.95
13796;SHT30;40911;51.552;9.874;2023-03-01T07:44:13;-0.61;83.77
13796;SHT30;40911;51.552;9.874;2023-03-01T07:46:36;-0.40;83.62
13796;SHT30;40911;51.552;9.874;2023-03-01T07:48:58;-0.38;83.00
13796;SHT30;40911;51.552;9.874;2023-03-01T07:51:20;-0.20;82.76
13796;SHT30;40911;51.552;9.874;2023-03-01T07:53:41;0.03;82.66
13796;SHT30;40911;51.552;9.874;2023-03-01T07:56:04;0.03;82.48
13796;SHT30;40911;51.552;9.874;2023-03-01T07:58:26;0.14;82.02
13796;SHT30;40911;51.552;9.874;2023-03-01T08:00:47;0.24;81.98
13796;SHT30;40911;51.552;9.874;2023-03-01T08:03:10;0.33;81.63
13796;SHT30;40911;51.552;9.874;2023-03-01T08:05:32;-0.11;82.24
13796;SHT30;40911;51.552;9.874;2023-03-01T08:07:53;0.25;81.90
13796;SHT30;40911;51.552;9.874;2023-03-01T08:10:16;0.40;81.07
13796;SHT30;40911;51.552;9.874;2023-03-01T08:12:37;0.46;80.76
13796;SHT30;40911;51.552;9.874;2023-03-01T08:14:59;0.68;80.40
13796;SHT30;40911;51.552;9.874;2023-03-01T08:17:20;0.61;79.64
13796;SHT30;40911;51.552;9.874;2023-03-01T08:19:43;0.59;79.05
13796;SHT30;40911;51.552;9.874;2023-03-01T08:22:06;0.30;79.97
13796;SHT30;40911;51.552;9.874;2023-03-01T08:24:27;0.56;79.35
13796;SHT30;40911;51.552;9.874;2023-03-01T08:26:49;0.96;79.37
13796;SHT30;40911;51.552;9.874;2023-03-01T08:29:11;1.19;78.75
13796;SHT30;40911;51.552;9.874;2023-03-01T08:31:34;0.90;78.72
13796;SHT30;40911;51.552;9.874;2023-03-01T08:33:58;1.38;78.97
13796;SHT30;40911;51.552;9.874;2023-03-01T08:36:21;1.16;78.57
13796;SHT30;40911;51.552;9.874;2023-03-01T08:38:43;1.61;79.46
13796;SHT30;40911;51.552;9.874;2023-03-01T08:41:06;1.56;78.00
13796;SHT30;40911;51.552;9.874;2023-03-01T08:43:27;1.62;78.74
13796;SHT30;40911;51.552;9.874;2023-03-01T08:45:49;1.76;78.06
13796;SHT30;40911;51.552;9.874;2023-03-01T08:48:10;2.01;77.83
13796;SHT30;40911;51.552;9.874;2023-03-01T08:50:32;1.76;77.10
13796;SHT30;40911;51.552;9.874;2023-03-01T08:52:55;2.22;78.19
13796;SHT30;40911;51.552;9.874;2023-03-01T08:55:16;2.44;76.60
13796;SHT30;40911;51.552;9.874;2023-03-01T08:57:38;2.34;77.96
13796;SHT30;40911;51.552;9.874;2023-03-01T08:59:59;2.72;76.47
13796;SHT30;40911;51.552;9.874;2023-03-01T09:02:21;2.73;76.48
13796;SHT30;40911;51.552;9.874;2023-03-01T09:04:43;2.82;75.53
13796;SHT30;40911;51.552;9.874;2023-03-01T09:07:05;2.85;74.46
13796;SHT30;40911;51.552;9.874;2023-03-01T09:09:28;2.86;74.81
13796;SHT30;40911;51.552;9.874;2023-03-01T09:11:50;2.92;74.24
13796;SHT30;40911;51.552;9.874;2023-03-01T09:14:12;3.10;73.72
13796;SHT30;40911;51.552;9.874;2023-03-01T09:16:34;3.50;73.98
13796;SHT30;40911;51.552;9.874;2023-03-01T09:18:56;3.18;73.82
13796;SHT30;40911;51.552;9.874;2023-03-01T09:21:19;3.75;72.81
13796;SHT30;40911;51.552;9.874;2023-03-01T09:23:43;3.65;72.29
13796;SHT30;40911;51.552;9.874;2023-03-01T09:26:06;3.45;72.01
13796;SHT30;40911;51.552;9.874;2023-03-01T09:28:29;3.96;72.67
13796;SHT30;40911;51.552;9.874;2023-03-01T09:30:50;3.75;71.66
13796;SHT30;40911;51.552;9.874;2023-03-01T09:33:12;4.20;71.64
13796;SHT30;40911;51.552;9.874;2023-03-01T09:35:34;4.22;71.72
13796;SHT30;40911;51.552;9.874;2023-03-01T09:37:56;4.54;71.59
13796;SHT30;40911;51.552;9.874;2023-03-01T09:40:20;4.71;70.24
13796;SHT30;40911;51.552;9.874;2023-03-01T09:42:51;4.52;69.45
13796;SHT30;40911;51.552;9.874;2023-03-01T09:45:21;4.47;70.23
13796;SHT30;40911;51.552;9.874;2023-03-01T09:47:46;4.58;69.10
13796;SHT30;40911;51.552;9.874;2023-03-01T09:50:12;3.75;71.28
13796;SHT30;40911;51.552;9.874;2023-03-01T09:52:39;4.69;69.72
13796;SHT30;40911;51.552;9.874;2023-03-01T09:55:08;4.25;69.92
13796;SHT30;40911;51.552;9.874;2023-03-01T09:57:36;4.18;69.45
13796;SHT30;40911;51.552;9.874;2023-03-01T10:00:30;3.61;69.63
13796;SHT30;40911;51.552;9.874;2023-03-01T10:02:58;4.16;70.57
13796;SHT30;40911;51.552;9.874;2023-03-01T10:05:35;4.32;68.86
13796;SHT30;40911;51.552;9.874;2023-03-01T10:08:06;4.59;67.87
13796;SHT30;40911;51.552;9.874;2023-03-01T10:10:36;4.51;66.49
13796;SHT30;40911;51.552;9.874;2023-03-01T10:13:00;4.99;66.09
13796;SHT30;40911;51.552;9.874;2023-03-01T10:15:33;4.89;65.64
13796;SHT30;40911;51.552;9.874;2023-03-01T10:17:57;4.87;65.23
13796;SHT30;40911;51.552;9.874;2023-03-01T10:20:22;4.80;64.86
13796;SHT30;40911;51.552;9.874;2023-03-01T10:22:44;4.86;65.04
13796;SHT30;40911;51.552;9.874;2023-03-01T10:25:13;4.47;64.85
13796;SHT30;40911;51.552;9.874;2023-03-01T10:27:42;4.51;65.18
13796;SHT30;40911;51.552;9.874;2023-03-01T10:30:13;4.71;64.74
13796;SHT30;40911;51.552;9.874;2023-03-01T10:32:39;4.82;65.00
13796;SHT30;40911;51.552;9.874;2023-03-01T10:35:01;4.76;64.17
13796;SHT30;40911;51.552;9.874;2023-03-01T10:37:23;4.52;65.13
13796;SHT30;40911;51.552;9.874;2023-03-01T10:39:57;4.79;64.75
13796;SHT30;40911;51.552;9.874;2023-03-01T10:42:25;4.80;64.92
13796;SHT30;40911;51.552;9.874;2023-03-01T10:44:48;4.76;64.82
13796;SHT30;40911;51.552;9.874;2023-03-01T10:47:16;4.83;63.92
13796;SHT30;40911;51.552;9.874;2023-03-01T10:49:52;4.93;63.32
13796;SHT30;40911;51.552;9.874;2023-03-01T10:52:18;4.73;63.45
13796;SHT30;40911;51.552;9.874;2023-03-01T10:54:41;4.92;63.80
13796;SHT30;40911;51.552;9.874;2023-03-01T10:57:28;5.23;64.02
13796;SHT30;40911;51.552;9.874;2023-03-01T11:00:01;5.49;63.33
13796;SHT30;40911;51.552;9.874;2023-03-01T11:02:27;5.44;62.96
13796;SHT30;40911;51.552;9.874;2023-03-01T11:04:59;5.31;64.03
13796;SHT30;40911;51.552;9.874;2023-03-01T11:07:20;5.73;62.57
13796;SHT30;40911;51.552;9.874;2023-03-01T11:09:42;5.20;62.22
13796;SHT30;40911;51.552;9.874;2023-03-01T11:12:11;5.08;62.80
13796;SHT30;40911;51.552;9.874;2023-03-01T11:14:37;5.44;62.29
13796;SHT30;40911;51.552;9.874;2023-03-01T11:17:02;5.18;62.17
13796;SHT30;40911;51.552;9.874;2023-03-01T11:19:24;5.27;62.37
13796;SHT30;40911;51.552;9.874;2023-03-01T11:22:01;5.46;62.17
13796;SHT30;40911;51.552;9.874;2023-03-01T11:24:28;5.38;61.98
13796;SHT30;40911;51.552;9.874;2023-03-01T11:26:53;5.39;60.33
13796;SHT30;40911;51.552;9.874;2023-03-01T11:29:25;5.64;59.50
13796;SHT30;40911;51.552;9.874;2023-03-01T11:31:48;5.34;60.24
13796;SHT30;40911;51.552;9.874;2023-03-01T11:34:14;5.81;60.23
13796;SHT30;40911;51.552;9.874;2023-03-01T11:36:40;5.73;59.50
13796;SHT30;40911;51.552;9.874;2023-03-01T11:39:15;5.73;59.07
13796;SHT30;40911;51.552;9.874;2023-03-01T11:41:40;6.11;59.30
13796;SHT30;40911;51.552;9.874;2023-03-01T11:44:05;5.83;59.25
13796;SHT30;40911;51.552;9.874;2023-03-01T11:46:42;5.65;59.26
13796;SHT30;40911;51.552;9.874;2023-03-01T11:49:30;5.71;58.43
13796;SHT30;40911;51.552;9.874;2023-03-01T11:52:00;5.66;58.57
13796;SHT30;40911;51.552;9.874;2023-03-01T11:54:38;5.38;58.86
13796;SHT30;40911;51.552;9.874;2023-03-01T11:57:10;5.42;59.56
13796;SHT30;40911;51.552;9.874;2023-03-01T12:00:06;5.37;59.73
13796;SHT30;40911;51.552;9.874;2023-03-01T12:03:04;5.58;60.04
13796;SHT30;40911;51.552;9.874;2023-03-01T12:05:51;5.69;58.94
13796;SHT30;40911;51.552;9.874;2023-03-01T12:08:23;5.85;59.39
13796;SHT30;40911;51.552;9.874;2023-03-01T12:10:54;5.94;60.67
13796;SHT30;40911;51.552;9.874;2023-03-01T12:13:36;5.93;62.02
13796;SHT30;40911;51.552;9.874;2023-03-01T12:16:13;5.96;62.21
13796;SHT30;40911;51.552;9.874;2023-03-01T12:18:58;5.52;62.33
13796;SHT30;40911;51.552;9.874;2023-03-01T12:21:33;5.45;62.47
13796;SHT30;40911;51.552;9.874;2023-03-01T12:24:14;5.62;62.27
13796;SHT30;40911;51.552;9.874;2023-03-01T12:26:43;5.73;62.23
13796;SHT30;40911;51.552;9.874;2023-03-01T12:29:24;5.65;62.09
13796;SHT30;40911;51.552;9.874;2023-03-01T12:31:58;5.64;62.57
13796;SHT30;40911;51.552;9.874;2023-03-01T12:34:43;5.75;62.69
13796;SHT30;40911;51.552;9.874;2023-03-01T12:37:25;5.49;62.21
13796;SHT30;40911;51.552;9.874;2023-03-01T12:39:59;5.93;62.21
13796;SHT30;40911;51.552;9.874;2023-03-01T12:42:30;5.93;61.58
13796;SHT30;40911;51.552;9.874;2023-03-01T12:45:05;5.87;61.91
13796;SHT30;40911;51.552;9.874;2023-03-01T12:47:51;5.90;62.73
13796;SHT30;40911;51.552;9.874;2023-03-01T12:50:18;5.94;63.26
13796;SHT30;40911;51.552;9.874;2023-03-01T12:52:44;5.97;63.15
13796;SHT30;40911;51.552;9.874;2023-03-01T12:55:22;6.02;63.21
13796;SHT30;40911;51.552;9.874;2023-03-01T12:57:52;5.81;65.01
13796;SHT30;40911;51.552;9.874;2023-03-01T13:00:24;6.03;65.14
13796;SHT30;40911;51.552;9.874;2023-03-01T13:02:49;6.16;64.72
13796;SHT30;40911;51.552;9.874;2023-03-01T13:05:25;6.03;64.89
13796;SHT30;40911;51.552;9.874;2023-03-01T13:07:54;6.17;64.61
13796;SHT30;40911;51.552;9.874;2023-03-01T13:10:24;6.02;65.16
13796;SHT30;40911;51.552;9.874;2023-03-01T13:13:01;5.89;64.55
13796;SHT30;40911;51.552;9.874;2023-03-01T13:15:29;5.94;65.17
13796;SHT30;40911;51.552;9.874;2023-03-01T13:17:52;5.94;64.81
13796;SHT30;40911;51.552;9.874;2023-03-01T13:20:17;5.86;64.72
13796;SHT30;40911;51.552;9.874;2023-03-01T13:22:39;5.90;64.54
13796;SHT30;40911;51.552;9.874;2023-03-01T13:25:03;5.93;64.59
13796;SHT30;40911;51.552;9.874;2023-03-01T13:27:32;6.00;64.44
13796;SHT30;40911;51.552;9.874;2023-03-01T13:29:57;6.13;63.66
13796;SHT30;40911;51.552;9.874;2023-03-01T13:32:24;6.13;64.23
13796;SHT30;40911;51.552;9.874;2023-03-01T13:34:50;5.90;62.22
13796;SHT30;40911;51.552;9.874;2023-03-01T13:37:20;5.78;63.05
13796;SHT30;40911;51.552;9.874;2023-03-01T13:39:41;5.79;63.38
13796;SHT30;40911;51.552;9.874;2023-03-01T13:42:03;5.94;62.97
13796;SHT30;40911;51.552;9.874;2023-03-01T13:44:30;5.99;63.33
13796;SHT30;40911;51.552;9.874;2023-03-01T13:46:57;5.96;63.72
13796;SHT30;40911;51.552;9.874;2023-03-01T13:49:21;5.94;62.99
13796;SHT30;40911;51.552;9.874;2023-03-01T13:51:46;5.85;63.39
13796;SHT30;40911;51.552;9.874;2023-03-01T13:54:12;5.83;64.07
13796;SHT30;40911;51.552;9.874;2023-03-01T13:56:36;6.02;63.90
13796;SHT30;40911;51.552;9.874;2023-03-01T13:59:01;5.87;63.63
13796;SHT30;40911;51.552;9.874;2023-03-01T14:01:27;5.92;63.45
13796;SHT30;40911;51.552;9.874;2023-03-01T14:03:50;6.03;63.71
13796;SHT30;40911;51.552;9.874;2023-03-01T14:06:14;5.86;64.07
13796;SHT30;40911;51.552;9.874;2023-03-01T14:08:38;5.75;64.62
13796;SHT30;40911;51.552;9.874;2023-03-01T14:11:21;5.89;64.63
13796;SHT30;40911;51.552;9.874;2023-03-01T14:13:54;5.97;65.03
13796;SHT30;40911;51.552;9.874;2023-03-01T14:16:27;5.87;64.39
13796;SHT30;40911;51.552;9.874;2023-03-01T14:18:59;5.92;65.47
13796;SHT30;40911;51.552;9.874;2023-03-01T14:21:23;5.93;65.76
13796;SHT30;40911;51.552;9.874;2023-03-01T14:23:45;5.97;67.07
13796;SHT30;40911;51.552;9.874;2023-03-01T14:26:08;6.07;66.98
13796;SHT30;40911;51.552;9.874;2023-03-01T14:28:32;5.92;67.59
13796;SHT30;40911;51.552;9.874;2023-03-01T14:30:56;6.02;66.43
13796;SHT30;40911;51.552;9.874;2023-03-01T14:33:21;5.94;66.98
13796;SHT30;40911;51.552;9.874;2023-03-01T14:35:52;5.87;67.52
13796;SHT30;40911;51.552;9.874;2023-03-01T14:38:20;5.82;67.28
13796;SHT30;40911;51.552;9.874;2023-03-01T14:40:42;5.92;67.36
13796;SHT30;40911;51.552;9.874;2023-03-01T14:43:10;5.93;67.15
13796;SHT30;40911;51.552;9.874;2023-03-01T14:45:32;5.85;67.86
13796;SHT30;40911;51.552;9.874;2023-03-01T14:47:54;5.90;66.82
13796;SHT30;40911;51.552;9.874;2023-03-01T14:50:24;5.93;65.91
13796;SHT30;40911;51.552;9.874;2023-03-01T14:52:50;5.85;65.69
13796;SHT30;40911;51.552;9.874;2023-03-01T14:55:16;5.93;65.43
13796;SHT30;40911;51.552;9.874;2023-03-01T14:57:42;5.87;65.85
13796;SHT30;40911;51.552;9.874;2023-03-01T15:00:06;5.85;64.61
13796;SHT30;40911;51.552;9.874;2023-03-01T15:02:29;5.93;65.49
13796;SHT30;40911;51.552;9.874;2023-03-01T15:04:54;5.87;64.85
13796;SHT30;40911;51.552;9.874;2023-03-01T15:07:17;5.92;66.18
13796;SHT30;40911;51.552;9.874;2023-03-01T15:09:41;5.96;65.53
13796;SHT30;40911;51.552;9.874;2023-03-01T15:12:25;5.93;63.48
13796;SHT30;40911;51.552;9.874;2023-03-01T15:14:46;5.96;62.44
13796;SHT30;40911;51.552;9.874;2023-03-01T15:17:30;6.10;61.65
13796;SHT30;40911;51.552;9.874;2023-03-01T15:19:52;6.28;60.74
13796;SHT30;40911;51.552;9.874;2023-03-01T15:22:15;6.24;61.64
13796;SHT30;40911;51.552;9.874;2023-03-01T15:24:37;6.21;63.16